PWSweather.com
Personal Weather Stations
Station Observations
SMETHPA
Wilcat Hollow, Upper Marvin Creek, Smethport, PA 16749

Wilcat Hollow, Upper Marvin CreekSmethport, PA 16749

Lat: 41.7178, Lon: -78.5583

Elevation: 1644

Station Type: Davis Vantage Pro 2 Plus

http://www.mckeanweather.com

High Low Average
Temperature 38.3°F3.5°F 13.0°F-10.6°F 24.7°F-4.1°F
Dew Point 26.7°F-2.9°F 10.4°F-12.0°F 18.3°F-7.6°F
Winds 6.0 mph SW9.7 mph SW Calm Calm 2.5 mph 4.0 mph
Wind Gusts 18.0 mph29.0 mph 2.0 mph3.2 mph 7.1 mph11.4 mph
Humidity 91% 57% 78%
Pressure 30.18 in1022.00 in 29.99 in1015.60 in -
Precipitation 0.53 in13.50 in - -
Hour Temp Dew Point Humidity Winds Wind Gusts Pressure Precip Precip Rate Daily Precip Total
12:00 AM 16.2°F-8.8°C 13.0°F-10.6°C 87% 2.0 mph WSW3.2 kmh WSW 6.0 mph9.7 kmh 30.17 in1021.7 mb 0.00 in0.0 mm 0.00 in0.0 mm 0.00 in0.0 mm
12:10 AM 16.1°F-8.8°C 13.2°F-10.4°C 88% 2.0 mph WSW3.2 kmh WSW 4.0 mph6.4 kmh 30.17 in1021.7 mb 0.00 in0.0 mm 0.00 in0.0 mm 0.00 in0.0 mm
12:20 AM 15.8°F-9.0°C 12.9°F-10.6°C 88% 2.0 mph WSW3.2 kmh WSW 5.0 mph8.0 kmh 30.17 in1021.7 mb 0.00 in0.0 mm 0.00 in0.0 mm 0.00 in0.0 mm
12:30 AM 15.7°F-9.1°C 12.8°F-10.7°C 88% 2.0 mph WSW3.2 kmh WSW 6.0 mph9.7 kmh 30.16 in1021.3 mb 0.00 in0.0 mm 0.00 in0.0 mm 0.00 in0.0 mm
12:40 AM 15.9°F-8.9°C 13.2°F-10.4°C 89% 2.0 mph SW3.2 kmh SW 7.0 mph11.3 kmh 30.16 in1021.3 mb 0.00 in0.0 mm 0.00 in0.0 mm 0.00 in0.0 mm
12:50 AM 15.8°F-9.0°C 13.1°F-10.5°C 89% 2.0 mph SW3.2 kmh SW 4.0 mph6.4 kmh 30.15 in1021.0 mb 0.00 in0.0 mm 0.00 in0.0 mm 0.00 in0.0 mm
01:00 AM 15.9°F-8.9°C 13.2°F-10.4°C 89% 2.0 mph SW3.2 kmh SW 6.0 mph9.7 kmh 30.16 in1021.3 mb 0.00 in0.0 mm 0.00 in0.0 mm 0.00 in0.0 mm
01:10 AM 16.1°F-8.8°C 13.4°F-10.3°C 89% 2.0 mph SW3.2 kmh SW 6.0 mph9.7 kmh 30.16 in1021.3 mb 0.00 in0.0 mm 0.00 in0.0 mm 0.00 in0.0 mm
01:20 AM 16.2°F-8.8°C 13.5°F-10.3°C 89% 2.0 mph SW3.2 kmh SW 4.0 mph6.4 kmh 30.16 in1021.3 mb 0.00 in0.0 mm 0.00 in0.0 mm 0.00 in0.0 mm
01:30 AM 15.8°F-9.0°C 12.9°F-10.6°C 88% 1.0 mph SW1.6 kmh SW 5.0 mph8.0 kmh 30.16 in1021.3 mb 0.00 in0.0 mm 0.00 in0.0 mm 0.00 in0.0 mm
01:40 AM 15.0°F-9.4°C 12.1°F-11.1°C 88% Calm Calm 3.0 mph4.8 kmh 30.17 in1021.7 mb 0.00 in0.0 mm 0.00 in0.0 mm 0.00 in0.0 mm
01:50 AM 14.5°F-9.7°C 11.6°F-11.3°C 88% 1.0 mph SW1.6 kmh SW 4.0 mph6.4 kmh 30.17 in1021.7 mb 0.00 in0.0 mm 0.00 in0.0 mm 0.00 in0.0 mm
02:00 AM 13.9°F-10.1°C 11.0°F-11.7°C 88% 1.0 mph SW1.6 kmh SW 4.0 mph6.4 kmh 30.17 in1021.7 mb 0.00 in0.0 mm 0.00 in0.0 mm 0.00 in0.0 mm
02:10 AM 13.5°F-10.3°C 10.9°F-11.7°C 89% 1.0 mph SW1.6 kmh SW 4.0 mph6.4 kmh 30.17 in1021.7 mb 0.00 in0.0 mm 0.00 in0.0 mm 0.00 in0.0 mm
02:20 AM 13.9°F-10.1°C 11.5°F-11.4°C 90% 2.0 mph SW3.2 kmh SW 5.0 mph8.0 kmh 30.17 in1021.7 mb 0.00 in0.0 mm 0.00 in0.0 mm 0.00 in0.0 mm
02:30 AM 14.5°F-9.7°C 12.4°F-10.9°C 91% 2.0 mph SW3.2 kmh SW 8.0 mph12.9 kmh 30.17 in1021.7 mb 0.00 in0.0 mm 0.00 in0.0 mm 0.00 in0.0 mm
02:40 AM 14.9°F-9.5°C 12.7°F-10.7°C 91% 2.0 mph SW3.2 kmh SW 7.0 mph11.3 kmh 30.16 in1021.3 mb 0.00 in0.0 mm 0.00 in0.0 mm 0.00 in0.0 mm
02:50 AM 15.7°F-9.1°C 13.5°F-10.3°C 91% 3.0 mph SW4.8 kmh SW 8.0 mph12.9 kmh 30.16 in1021.3 mb 0.00 in0.0 mm 0.00 in0.0 mm 0.00 in0.0 mm
03:00 AM 16.3°F-8.7°C 13.9°F-10.1°C 90% 3.0 mph SW4.8 kmh SW 6.0 mph9.7 kmh 30.16 in1021.3 mb 0.00 in0.0 mm 0.00 in0.0 mm 0.00 in0.0 mm
03:10 AM 16.8°F-8.4°C 14.4°F-9.8°C 90% 3.0 mph SW4.8 kmh SW 7.0 mph11.3 kmh 30.16 in1021.3 mb 0.00 in0.0 mm 0.00 in0.0 mm 0.00 in0.0 mm
03:20 AM 17.0°F-8.3°C 14.3°F-9.8°C 89% 2.0 mph SW3.2 kmh SW 4.0 mph6.4 kmh 30.16 in1021.3 mb 0.00 in0.0 mm 0.00 in0.0 mm 0.00 in0.0 mm
03:30 AM 17.2°F-8.2°C 14.5°F-9.7°C 89% 2.0 mph SW3.2 kmh SW 7.0 mph11.3 kmh 30.16 in1021.3 mb 0.00 in0.0 mm 0.00 in0.0 mm 0.00 in0.0 mm
03:40 AM 17.3°F-8.2°C 14.4°F-9.8°C 88% 2.0 mph SW3.2 kmh SW 7.0 mph11.3 kmh 30.16 in1021.3 mb 0.00 in0.0 mm 0.00 in0.0 mm 0.00 in0.0 mm
03:50 AM 17.4°F-8.1°C 14.5°F-9.7°C 88% 2.0 mph SW3.2 kmh SW 5.0 mph8.0 kmh 30.16 in1021.3 mb 0.00 in0.0 mm 0.00 in0.0 mm 0.00 in0.0 mm
04:00 AM 17.3°F-8.2°C 14.4°F-9.8°C 88% 2.0 mph SW3.2 kmh SW 6.0 mph9.7 kmh 30.16 in1021.3 mb 0.00 in0.0 mm 0.00 in0.0 mm 0.00 in0.0 mm
04:10 AM 17.0°F-8.3°C 14.1°F-9.9°C 88% 2.0 mph SW3.2 kmh SW 6.0 mph9.7 kmh 30.16 in1021.3 mb 0.00 in0.0 mm 0.00 in0.0 mm 0.00 in0.0 mm
04:20 AM 16.9°F-8.4°C 13.7°F-10.2°C 87% 3.0 mph SW4.8 kmh SW 8.0 mph12.9 kmh 30.15 in1021.0 mb 0.00 in0.0 mm 0.00 in0.0 mm 0.00 in0.0 mm
04:30 AM 16.8°F-8.4°C 13.6°F-10.2°C 87% 3.0 mph WSW4.8 kmh WSW 7.0 mph11.3 kmh 30.16 in1021.3 mb 0.00 in0.0 mm 0.00 in0.0 mm 0.00 in0.0 mm
04:40 AM 16.7°F-8.5°C 13.5°F-10.3°C 87% 3.0 mph WSW4.8 kmh WSW 8.0 mph12.9 kmh 30.16 in1021.3 mb 0.00 in0.0 mm 0.00 in0.0 mm 0.00 in0.0 mm
04:50 AM 16.8°F-8.4°C 13.6°F-10.2°C 87% 3.0 mph WSW4.8 kmh WSW 5.0 mph8.0 kmh 30.16 in1021.3 mb 0.00 in0.0 mm 0.00 in0.0 mm 0.00 in0.0 mm
05:00 AM 16.5°F-8.6°C 13.3°F-10.4°C 87% 2.0 mph WSW3.2 kmh WSW 7.0 mph11.3 kmh 30.16 in1021.3 mb 0.00 in0.0 mm 0.00 in0.0 mm 0.00 in0.0 mm
05:10 AM 16.1°F-8.8°C 12.9°F-10.6°C 87% 2.0 mph WSW3.2 kmh WSW 8.0 mph12.9 kmh 30.16 in1021.3 mb 0.00 in0.0 mm 0.00 in0.0 mm 0.00 in0.0 mm
05:20 AM 16.4°F-8.7°C 13.5°F-10.3°C 88% 3.0 mph WSW4.8 kmh WSW 7.0 mph11.3 kmh 30.16 in1021.3 mb 0.00 in0.0 mm 0.00 in0.0 mm 0.00 in0.0 mm
05:30 AM 16.3°F-8.7°C 13.4°F-10.3°C 88% 2.0 mph WSW3.2 kmh WSW 5.0 mph8.0 kmh 30.16 in1021.3 mb 0.00 in0.0 mm 0.00 in0.0 mm 0.00 in0.0 mm
05:40 AM 15.9°F-8.9°C 13.0°F-10.6°C 88% 2.0 mph WSW3.2 kmh WSW 7.0 mph11.3 kmh 30.17 in1021.7 mb 0.00 in0.0 mm 0.00 in0.0 mm 0.00 in0.0 mm
05:50 AM 15.4°F-9.2°C 12.2°F-11.0°C 87% 2.0 mph WSW3.2 kmh WSW 5.0 mph8.0 kmh 30.17 in1021.7 mb 0.00 in0.0 mm 0.00 in0.0 mm 0.00 in0.0 mm
06:00 AM 15.0°F-9.4°C 12.1°F-11.1°C 88% 2.0 mph WSW3.2 kmh WSW 4.0 mph6.4 kmh 30.17 in1021.7 mb 0.00 in0.0 mm 0.00 in0.0 mm 0.00 in0.0 mm
06:10 AM 14.5°F-9.7°C 11.6°F-11.3°C 88% 2.0 mph WSW3.2 kmh WSW 5.0 mph8.0 kmh 30.17 in1021.7 mb 0.00 in0.0 mm 0.00 in0.0 mm 0.00 in0.0 mm
06:20 AM 14.2°F-9.9°C 11.3°F-11.5°C 88% 2.0 mph WSW3.2 kmh WSW 4.0 mph6.4 kmh 30.16 in1021.3 mb 0.00 in0.0 mm 0.00 in0.0 mm 0.00 in0.0 mm
06:30 AM 13.8°F-10.1°C 11.2°F-11.6°C 89% 2.0 mph WSW3.2 kmh WSW 8.0 mph12.9 kmh 30.16 in1021.3 mb 0.00 in0.0 mm 0.00 in0.0 mm 0.00 in0.0 mm
06:40 AM 13.4°F-10.3°C 10.8°F-11.8°C 89% 2.0 mph WSW3.2 kmh WSW 6.0 mph9.7 kmh 30.16 in1021.3 mb 0.00 in0.0 mm 0.00 in0.0 mm 0.00 in0.0 mm
06:50 AM 13.2°F-10.4°C 10.6°F-11.9°C 89% 2.0 mph WSW3.2 kmh WSW 6.0 mph9.7 kmh 30.17 in1021.7 mb 0.00 in0.0 mm 0.00 in0.0 mm 0.00 in0.0 mm
07:00 AM 13.0°F-10.6°C 10.4°F-12.0°C 89% 2.0 mph WSW3.2 kmh WSW 6.0 mph9.7 kmh 30.17 in1021.7 mb 0.00 in0.0 mm 0.00 in0.0 mm 0.00 in0.0 mm
07:10 AM 13.2°F-10.4°C 10.8°F-11.8°C 90% 2.0 mph WSW3.2 kmh WSW 4.0 mph6.4 kmh 30.17 in1021.7 mb 0.00 in0.0 mm 0.00 in0.0 mm 0.00 in0.0 mm
07:20 AM 13.4°F-10.3°C 11.0°F-11.7°C 90% 2.0 mph WSW3.2 kmh WSW 5.0 mph8.0 kmh 30.16 in1021.3 mb 0.00 in0.0 mm 0.00 in0.0 mm 0.00 in0.0 mm
07:30 AM 13.7°F-10.2°C 11.6°F-11.3°C 91% 2.0 mph WSW3.2 kmh WSW 6.0 mph9.7 kmh 30.16 in1021.3 mb 0.00 in0.0 mm 0.00 in0.0 mm 0.00 in0.0 mm
07:40 AM 13.9°F-10.1°C 11.8°F-11.2°C 91% 2.0 mph WSW3.2 kmh WSW 6.0 mph9.7 kmh 30.16 in1021.3 mb 0.00 in0.0 mm 0.00 in0.0 mm 0.00 in0.0 mm
07:50 AM 14.2°F-9.9°C 12.1°F-11.1°C 91% 2.0 mph WSW3.2 kmh WSW 8.0 mph12.9 kmh 30.16 in1021.3 mb 0.00 in0.0 mm 0.00 in0.0 mm 0.00 in0.0 mm
08:00 AM 14.1°F-9.9°C 11.7°F-11.3°C 90% 2.0 mph WSW3.2 kmh WSW 4.0 mph6.4 kmh 30.16 in1021.3 mb 0.00 in0.0 mm 0.00 in0.0 mm 0.00 in0.0 mm
08:10 AM 13.9°F-10.1°C 11.5°F-11.4°C 90% 1.0 mph WSW1.6 kmh WSW 4.0 mph6.4 kmh 30.17 in1021.7 mb 0.00 in0.0 mm 0.00 in0.0 mm 0.00 in0.0 mm
08:20 AM 13.6°F-10.2°C 11.2°F-11.6°C 90% 1.0 mph WSW1.6 kmh WSW 4.0 mph6.4 kmh 30.17 in1021.7 mb 0.00 in0.0 mm 0.00 in0.0 mm 0.00 in0.0 mm
08:30 AM 13.5°F-10.3°C 11.1°F-11.6°C 90% 1.0 mph WSW1.6 kmh WSW 7.0 mph11.3 kmh 30.18 in1022.0 mb 0.00 in0.0 mm 0.00 in0.0 mm 0.00 in0.0 mm
08:40 AM 13.7°F-10.2°C 11.3°F-11.5°C 90% 2.0 mph WSW3.2 kmh WSW 6.0 mph9.7 kmh 30.18 in1022.0 mb 0.00 in0.0 mm 0.00 in0.0 mm 0.00 in0.0 mm
08:50 AM 13.9°F-10.1°C 11.5°F-11.4°C 90% 2.0 mph WSW3.2 kmh WSW 4.0 mph6.4 kmh 30.18 in1022.0 mb 0.00 in0.0 mm 0.00 in0.0 mm 0.00 in0.0 mm
09:00 AM 14.3°F-9.8°C 11.9°F-11.2°C 90% 1.0 mph SW1.6 kmh SW 7.0 mph11.3 kmh 30.17 in1021.7 mb 0.00 in0.0 mm 0.00 in0.0 mm 0.00 in0.0 mm
09:10 AM 15.7°F-9.1°C 13.5°F-10.3°C 91% 2.0 mph SW3.2 kmh SW 6.0 mph9.7 kmh 30.17 in1021.7 mb 0.00 in0.0 mm 0.00 in0.0 mm 0.00 in0.0 mm
09:20 AM 17.0°F-8.3°C 14.3°F-9.8°C 89% 3.0 mph SW4.8 kmh SW 6.0 mph9.7 kmh 30.17 in1021.7 mb 0.00 in0.0 mm 0.00 in0.0 mm 0.00 in0.0 mm
09:30 AM 18.4°F-7.6°C 15.2°F-9.3°C 87% 3.0 mph SW4.8 kmh SW 8.0 mph12.9 kmh 30.16 in1021.3 mb 0.00 in0.0 mm 0.00 in0.0 mm 0.00 in0.0 mm
09:40 AM 19.6°F-6.9°C 16.1°F-8.8°C 86% 4.0 mph SW6.4 kmh SW 8.0 mph12.9 kmh 30.16 in1021.3 mb 0.00 in0.0 mm 0.00 in0.0 mm 0.00 in0.0 mm
09:50 AM 21.5°F-5.8°C 17.1°F-8.3°C 83% 3.0 mph SSW4.8 kmh SSW 9.0 mph14.5 kmh 30.16 in1021.3 mb 0.00 in0.0 mm 0.00 in0.0 mm 0.00 in0.0 mm
10:00 AM 23.2°F-4.9°C 18.2°F-7.7°C 81% 4.0 mph SSW6.4 kmh SSW 11.0 mph17.7 kmh 30.15 in1021.0 mb 0.00 in0.0 mm 0.00 in0.0 mm 0.00 in0.0 mm
10:10 AM 24.6°F-4.1°C 18.7°F-7.4°C 78% 4.0 mph SW6.4 kmh SW 9.0 mph14.5 kmh 30.16 in1021.3 mb 0.00 in0.0 mm 0.00 in0.0 mm 0.00 in0.0 mm
10:20 AM 25.9°F-3.4°C 19.4°F-7.0°C 76% 3.0 mph SW4.8 kmh SW 6.0 mph9.7 kmh 30.16 in1021.3 mb 0.00 in0.0 mm 0.00 in0.0 mm 0.00 in0.0 mm
10:30 AM 27.1°F-2.7°C 19.9°F-6.7°C 74% 3.0 mph SW4.8 kmh SW 12.0 mph19.3 kmh 30.16 in1021.3 mb 0.00 in0.0 mm 0.00 in0.0 mm 0.00 in0.0 mm
10:40 AM 27.7°F-2.4°C 20.2°F-6.6°C 73% 3.0 mph SSW4.8 kmh SSW 12.0 mph19.3 kmh 30.15 in1021.0 mb 0.00 in0.0 mm 0.00 in0.0 mm 0.00 in0.0 mm
10:50 AM 28.3°F-2.1°C 20.4°F-6.4°C 72% 4.0 mph SSW6.4 kmh SSW 9.0 mph14.5 kmh 30.15 in1021.0 mb 0.00 in0.0 mm 0.00 in0.0 mm 0.00 in0.0 mm
11:00 AM 29.2°F-1.6°C 20.6°F-6.3°C 70% 4.0 mph SSW6.4 kmh SSW 10.0 mph16.1 kmh 30.14 in1020.7 mb 0.00 in0.0 mm 0.00 in0.0 mm 0.00 in0.0 mm
11:10 AM 29.7°F-1.3°C 20.8°F-6.2°C 69% 4.0 mph SSW6.4 kmh SSW 9.0 mph14.5 kmh 30.14 in1020.7 mb 0.00 in0.0 mm 0.00 in0.0 mm 0.00 in0.0 mm
11:20 AM 30.5°F-0.8°C 21.2°F-6.0°C 68% 4.0 mph S6.4 kmh S 10.0 mph16.1 kmh 30.14 in1020.7 mb 0.00 in0.0 mm 0.00 in0.0 mm 0.00 in0.0 mm
11:30 AM 30.7°F-0.7°C 21.4°F-5.9°C 68% 4.0 mph SW6.4 kmh SW 11.0 mph17.7 kmh 30.13 in1020.3 mb 0.00 in0.0 mm 0.00 in0.0 mm 0.00 in0.0 mm
11:40 AM 31.9°F-0.1°C 22.2°F-5.4°C 67% 4.0 mph SSW6.4 kmh SSW 6.0 mph9.7 kmh 30.13 in1020.3 mb 0.00 in0.0 mm 0.00 in0.0 mm 0.00 in0.0 mm
11:50 AM 32.4°F0.2°C 21.9°F-5.6°C 65% 3.0 mph SSW4.8 kmh SSW 8.0 mph12.9 kmh 30.12 in1020.0 mb 0.00 in0.0 mm 0.00 in0.0 mm 0.00 in0.0 mm
12:00 PM 32.6°F0.3°C 22.5°F-5.3°C 66% 3.0 mph SW4.8 kmh SW 8.0 mph12.9 kmh 30.11 in1019.6 mb 0.01 in0.3 mm 0.01 in0.3 mm 0.01 in0.3 mm
12:10 PM 33.1°F0.6°C 22.6°F-5.2°C 65% 4.0 mph SW6.4 kmh SW 10.0 mph16.1 kmh 30.10 in1019.3 mb 0.01 in0.3 mm 0.00 in0.0 mm 0.01 in0.3 mm
12:20 PM 33.6°F0.9°C 23.1°F-4.9°C 65% 3.0 mph SW4.8 kmh SW 8.0 mph12.9 kmh 30.09 in1019.0 mb 0.01 in0.3 mm 0.00 in0.0 mm 0.01 in0.3 mm
12:30 PM 34.3°F1.3°C 23.4°F-4.8°C 64% 4.0 mph SSW6.4 kmh SSW 9.0 mph14.5 kmh 30.09 in1019.0 mb 0.02 in0.5 mm 0.06 in1.5 mm 0.02 in0.5 mm
12:40 PM 34.6°F1.4°C 23.3°F-4.8°C 63% 4.0 mph SSW6.4 kmh SSW 11.0 mph17.7 kmh 30.08 in1018.6 mb 0.02 in0.5 mm 0.00 in0.0 mm 0.02 in0.5 mm
12:50 PM 34.8°F1.6°C 23.9°F-4.5°C 64% 5.0 mph SW8.0 kmh SW 12.0 mph19.3 kmh 30.08 in1018.6 mb 0.02 in0.5 mm 0.00 in0.0 mm 0.02 in0.5 mm
01:00 PM 35.3°F1.8°C 24.7°F-4.1°C 65% 5.0 mph SW8.0 kmh SW 10.0 mph16.1 kmh 30.08 in1018.6 mb 0.01 in0.3 mm 0.00 in0.0 mm 0.02 in0.5 mm
01:10 PM 35.7°F2.1°C 25.4°F-3.7°C 66% 4.0 mph SW6.4 kmh SW 11.0 mph17.7 kmh 30.07 in1018.3 mb 0.02 in0.5 mm 0.06 in1.5 mm 0.03 in0.8 mm
01:20 PM 36.2°F2.3°C 26.6°F-3.0°C 68% 4.0 mph SSW6.4 kmh SSW 10.0 mph16.1 kmh 30.07 in1018.3 mb 0.02 in0.5 mm 0.00 in0.0 mm 0.03 in0.8 mm
01:30 PM 36.6°F2.6°C 26.7°F-2.9°C 67% 4.0 mph SSW6.4 kmh SSW 9.0 mph14.5 kmh 30.07 in1018.3 mb 0.01 in0.3 mm 0.00 in0.0 mm 0.03 in0.8 mm
01:40 PM 37.3°F2.9°C 25.1°F-3.8°C 61% 4.0 mph SSW6.4 kmh SSW 8.0 mph12.9 kmh 30.07 in1018.3 mb 0.02 in0.5 mm 0.06 in1.5 mm 0.04 in1.0 mm
01:50 PM 38.3°F3.5°C 24.8°F-4.0°C 58% 3.0 mph SSW4.8 kmh SSW 7.0 mph11.3 kmh 30.07 in1018.3 mb 0.02 in0.5 mm 0.00 in0.0 mm 0.04 in1.0 mm
02:00 PM 37.4°F3.0°C 25.9°F-3.4°C 63% 3.0 mph SSW4.8 kmh SSW 10.0 mph16.1 kmh 30.07 in1018.3 mb 0.02 in0.5 mm 0.00 in0.0 mm 0.04 in1.0 mm
02:10 PM 37.1°F2.8°C 23.3°F-4.8°C 57% 4.0 mph SW6.4 kmh SW 7.0 mph11.3 kmh 30.06 in1017.9 mb 0.01 in0.3 mm 0.00 in0.0 mm 0.04 in1.0 mm
02:20 PM 36.5°F2.5°C 23.5°F-4.7°C 59% 5.0 mph SW8.0 kmh SW 18.0 mph29.0 kmh 30.06 in1017.9 mb 0.02 in0.5 mm 0.06 in1.5 mm 0.05 in1.3 mm
02:30 PM 35.7°F2.1°C 23.2°F-4.9°C 60% 5.0 mph SSW8.0 kmh SSW 13.0 mph20.9 kmh 30.05 in1017.6 mb 0.02 in0.5 mm 0.00 in0.0 mm 0.05 in1.3 mm
02:40 PM 35.6°F2.0°C 23.9°F-4.5°C 62% 5.0 mph SW8.0 kmh SW 14.0 mph22.5 kmh 30.06 in1017.9 mb 0.01 in0.3 mm 0.00 in0.0 mm 0.05 in1.3 mm
02:50 PM 35.6°F2.0°C 23.9°F-4.5°C 62% 5.0 mph WSW8.0 kmh WSW 15.0 mph24.1 kmh 30.06 in1017.9 mb 0.02 in0.5 mm 0.06 in1.5 mm 0.06 in1.5 mm
03:00 PM 36.2°F2.3°C 23.6°F-4.7°C 60% 4.0 mph SW6.4 kmh SW 14.0 mph22.5 kmh 30.06 in1017.9 mb 0.02 in0.5 mm 0.00 in0.0 mm 0.06 in1.5 mm
03:10 PM 36.0°F2.2°C 23.8°F-4.6°C 61% 6.0 mph SW9.7 kmh SW 12.0 mph19.3 kmh 30.05 in1017.6 mb 0.02 in0.5 mm 0.00 in0.0 mm 0.06 in1.5 mm
03:20 PM 35.9°F2.2°C 23.4°F-4.8°C 60% 4.0 mph SW6.4 kmh SW 9.0 mph14.5 kmh 30.05 in1017.6 mb 0.02 in0.5 mm 0.00 in0.0 mm 0.07 in1.8 mm
03:30 PM 36.0°F2.2°C 23.0°F-5.0°C 59% 4.0 mph SW6.4 kmh SW 13.0 mph20.9 kmh 30.05 in1017.6 mb 0.02 in0.5 mm 0.00 in0.0 mm 0.07 in1.8 mm
03:40 PM 36.4°F2.4°C 23.4°F-4.8°C 59% 4.0 mph WSW6.4 kmh WSW 13.0 mph20.9 kmh 30.06 in1017.9 mb 0.01 in0.3 mm 0.00 in0.0 mm 0.07 in1.8 mm
03:50 PM 35.9°F2.2°C 23.0°F-5.0°C 59% 4.0 mph SSW6.4 kmh SSW 8.0 mph12.9 kmh 30.06 in1017.9 mb 0.01 in0.3 mm 0.00 in0.0 mm 0.07 in1.8 mm
04:00 PM 35.5°F1.9°C 23.0°F-5.0°C 60% 4.0 mph SW6.4 kmh SW 12.0 mph19.3 kmh 30.06 in1017.9 mb 0.02 in0.5 mm 0.01 in0.3 mm 0.08 in2.0 mm
04:10 PM 35.5°F1.9°C 23.0°F-5.0°C 60% 3.0 mph SW4.8 kmh SW 7.0 mph11.3 kmh 30.06 in1017.9 mb 0.02 in0.5 mm 0.00 in0.0 mm 0.08 in2.0 mm
04:20 PM 35.2°F1.8°C 23.1°F-4.9°C 61% 4.0 mph SSW6.4 kmh SSW 8.0 mph12.9 kmh 30.06 in1017.9 mb 0.01 in0.3 mm 0.00 in0.0 mm 0.08 in2.0 mm
04:30 PM 34.9°F1.6°C 22.8°F-5.1°C 61% 4.0 mph SW6.4 kmh SW 8.0 mph12.9 kmh 30.06 in1017.9 mb 0.02 in0.5 mm 0.06 in1.5 mm 0.09 in2.3 mm
04:40 PM 34.5°F1.4°C 23.2°F-4.9°C 63% 2.0 mph SW3.2 kmh SW 4.0 mph6.4 kmh 30.07 in1018.3 mb 0.02 in0.5 mm 0.00 in0.0 mm 0.09 in2.3 mm
04:50 PM 33.7°F0.9°C 22.8°F-5.1°C 64% 1.0 mph WSW1.6 kmh WSW 9.0 mph14.5 kmh 30.07 in1018.3 mb 0.02 in0.5 mm 0.00 in0.0 mm 0.09 in2.3 mm
05:00 PM 33.1°F0.6°C 23.0°F-5.0°C 66% 2.0 mph WSW3.2 kmh WSW 6.0 mph9.7 kmh 30.07 in1018.3 mb 0.01 in0.3 mm 0.00 in0.0 mm 0.09 in2.3 mm
05:10 PM 32.2°F0.1°C 22.8°F-5.1°C 68% 1.0 mph WSW1.6 kmh WSW 3.0 mph4.8 kmh 30.07 in1018.3 mb 0.01 in0.3 mm 0.00 in0.0 mm 0.09 in2.3 mm
05:20 PM 31.3°F-0.4°C 22.3°F-5.4°C 69% 1.0 mph WSW1.6 kmh WSW 3.0 mph4.8 kmh 30.06 in1017.9 mb 0.01 in0.3 mm 0.00 in0.0 mm 0.09 in2.3 mm
05:30 PM 30.6°F-0.8°C 22.3°F-5.4°C 71% 1.0 mph WSW1.6 kmh WSW 5.0 mph8.0 kmh 30.06 in1017.9 mb 0.00 in0.0 mm 0.00 in0.0 mm 0.09 in2.3 mm
05:40 PM 30.1°F-1.1°C 22.2°F-5.4°C 72% 1.0 mph WSW1.6 kmh WSW 4.0 mph6.4 kmh 30.06 in1017.9 mb 0.00 in0.0 mm 0.00 in0.0 mm 0.09 in2.3 mm
05:50 PM 29.6°F-1.3°C 22.0°F-5.6°C 73% 1.0 mph WSW1.6 kmh WSW 2.0 mph3.2 kmh 30.06 in1017.9 mb 0.00 in0.0 mm 0.00 in0.0 mm 0.09 in2.3 mm
06:00 PM 29.0°F-1.7°C 21.4°F-5.9°C 73% 1.0 mph WSW1.6 kmh WSW 5.0 mph8.0 kmh 30.06 in1017.9 mb 0.00 in0.0 mm 0.00 in0.0 mm 0.09 in2.3 mm
06:10 PM 28.8°F-1.8°C 21.9°F-5.6°C 75% 1.0 mph WSW1.6 kmh WSW 4.0 mph6.4 kmh 30.06 in1017.9 mb 0.00 in0.0 mm 0.00 in0.0 mm 0.09 in2.3 mm
06:20 PM 28.5°F-1.9°C 21.6°F-5.8°C 75% 1.0 mph WSW1.6 kmh WSW 3.0 mph4.8 kmh 30.06 in1017.9 mb 0.00 in0.0 mm 0.00 in0.0 mm 0.09 in2.3 mm
06:30 PM 28.4°F-2.0°C 21.5°F-5.8°C 75% 1.0 mph WSW1.6 kmh WSW 4.0 mph6.4 kmh 30.06 in1017.9 mb 0.00 in0.0 mm 0.00 in0.0 mm 0.09 in2.3 mm
06:40 PM 28.4°F-2.0°C 21.8°F-5.7°C 76% 1.0 mph SW1.6 kmh SW 3.0 mph4.8 kmh 30.06 in1017.9 mb 0.00 in0.0 mm 0.00 in0.0 mm 0.09 in2.3 mm
06:50 PM 28.3°F-2.1°C 21.7°F-5.7°C 76% 1.0 mph SW1.6 kmh SW 4.0 mph6.4 kmh 30.06 in1017.9 mb 0.00 in0.0 mm 0.00 in0.0 mm 0.09 in2.3 mm
07:00 PM 28.2°F-2.1°C 21.6°F-5.8°C 76% 2.0 mph SW3.2 kmh SW 6.0 mph9.7 kmh 30.06 in1017.9 mb 0.00 in0.0 mm 0.00 in0.0 mm 0.09 in2.3 mm
07:10 PM 28.0°F-2.2°C 21.4°F-5.9°C 76% 1.0 mph SW1.6 kmh SW 4.0 mph6.4 kmh 30.06 in1017.9 mb 0.00 in0.0 mm 0.00 in0.0 mm 0.09 in2.3 mm
07:20 PM 27.9°F-2.3°C 21.6°F-5.8°C 77% 2.0 mph SW3.2 kmh SW 7.0 mph11.3 kmh 30.06 in1017.9 mb 0.00 in0.0 mm 0.00 in0.0 mm 0.09 in2.3 mm
07:30 PM 27.7°F-2.4°C 21.4°F-5.9°C 77% 2.0 mph SW3.2 kmh SW 5.0 mph8.0 kmh 30.05 in1017.6 mb 0.00 in0.0 mm 0.00 in0.0 mm 0.09 in2.3 mm
07:40 PM 27.9°F-2.3°C 21.6°F-5.8°C 77% 2.0 mph SW3.2 kmh SW 9.0 mph14.5 kmh 30.05 in1017.6 mb 0.00 in0.0 mm 0.00 in0.0 mm 0.09 in2.3 mm
07:50 PM 28.0°F-2.2°C 21.7°F-5.7°C 77% 2.0 mph WSW3.2 kmh WSW 7.0 mph11.3 kmh 30.05 in1017.6 mb 0.00 in0.0 mm 0.00 in0.0 mm 0.09 in2.3 mm
08:00 PM 27.8°F-2.3°C 21.5°F-5.8°C 77% 1.0 mph WSW1.6 kmh WSW 4.0 mph6.4 kmh 30.05 in1017.6 mb 0.00 in0.0 mm 0.00 in0.0 mm 0.09 in2.3 mm
08:10 PM 27.7°F-2.4°C 21.7°F-5.7°C 78% 2.0 mph WSW3.2 kmh WSW 4.0 mph6.4 kmh 30.04 in1017.3 mb 0.00 in0.0 mm 0.00 in0.0 mm 0.09 in2.3 mm
08:20 PM 27.6°F-2.4°C 21.6°F-5.8°C 78% 1.0 mph WSW1.6 kmh WSW 7.0 mph11.3 kmh 30.04 in1017.3 mb 0.00 in0.0 mm 0.00 in0.0 mm 0.09 in2.3 mm
08:30 PM 28.1°F-2.2°C 21.5°F-5.8°C 76% 2.0 mph SW3.2 kmh SW 14.0 mph22.5 kmh 30.04 in1017.3 mb 0.00 in0.0 mm 0.00 in0.0 mm 0.09 in2.3 mm
08:40 PM 28.7°F-1.8°C 22.1°F-5.5°C 76% 3.0 mph SSW4.8 kmh SSW 7.0 mph11.3 kmh 30.04 in1017.3 mb 0.00 in0.0 mm 0.00 in0.0 mm 0.09 in2.3 mm
08:50 PM 28.9°F-1.7°C 22.0°F-5.6°C 75% 3.0 mph WSW4.8 kmh WSW 7.0 mph11.3 kmh 30.04 in1017.3 mb 0.00 in0.0 mm 0.00 in0.0 mm 0.09 in2.3 mm
09:00 PM 28.4°F-2.0°C 21.5°F-5.8°C 75% 2.0 mph WSW3.2 kmh WSW 5.0 mph8.0 kmh 30.04 in1017.3 mb 0.00 in0.0 mm 0.00 in0.0 mm 0.09 in2.3 mm
09:10 PM 28.2°F-2.1°C 21.6°F-5.8°C 76% 2.0 mph WSW3.2 kmh WSW 7.0 mph11.3 kmh 30.04 in1017.3 mb 0.00 in0.0 mm 0.00 in0.0 mm 0.09 in2.3 mm
09:20 PM 28.3°F-2.1°C 22.0°F-5.6°C 77% 2.0 mph WSW3.2 kmh WSW 5.0 mph8.0 kmh 30.04 in1017.3 mb 0.00 in0.0 mm 0.00 in0.0 mm 0.09 in2.3 mm
09:30 PM 28.1°F-2.2°C 21.5°F-5.8°C 76% 2.0 mph WSW3.2 kmh WSW 6.0 mph9.7 kmh 30.04 in1017.3 mb 0.00 in0.0 mm 0.00 in0.0 mm 0.09 in2.3 mm
09:40 PM 28.1°F-2.2°C 21.8°F-5.7°C 77% 2.0 mph SW3.2 kmh SW 9.0 mph14.5 kmh 30.03 in1016.9 mb 0.00 in0.0 mm 0.00 in0.0 mm 0.09 in2.3 mm
09:50 PM 28.1°F-2.2°C 21.8°F-5.7°C 77% 2.0 mph SW3.2 kmh SW 6.0 mph9.7 kmh 30.03 in1016.9 mb 0.00 in0.0 mm 0.00 in0.0 mm 0.09 in2.3 mm
10:00 PM 28.2°F-2.1°C 21.6°F-5.8°C 76% 2.0 mph SW3.2 kmh SW 5.0 mph8.0 kmh 30.02 in1016.6 mb 0.00 in0.0 mm 0.00 in0.0 mm 0.09 in2.3 mm
10:10 PM 28.7°F-1.8°C 21.8°F-5.7°C 75% 2.0 mph SW3.2 kmh SW 9.0 mph14.5 kmh 30.02 in1016.6 mb 0.00 in0.0 mm 0.00 in0.0 mm 0.09 in2.3 mm
10:20 PM 28.8°F-1.8°C 21.9°F-5.6°C 75% 2.0 mph SW3.2 kmh SW 6.0 mph9.7 kmh 30.02 in1016.6 mb 0.00 in0.0 mm 0.00 in0.0 mm 0.09 in2.3 mm
10:30 PM 29.1°F-1.6°C 21.8°F-5.7°C 74% 2.0 mph S3.2 kmh S 9.0 mph14.5 kmh 30.02 in1016.6 mb 0.00 in0.0 mm 0.00 in0.0 mm 0.09 in2.3 mm
10:40 PM 29.4°F-1.4°C 21.8°F-5.7°C 73% 2.0 mph SW3.2 kmh SW 6.0 mph9.7 kmh 30.01 in1016.3 mb 0.00 in0.0 mm 0.00 in0.0 mm 0.09 in2.3 mm
10:50 PM 29.5°F-1.4°C 21.6°F-5.8°C 72% 2.0 mph SW3.2 kmh SW 7.0 mph11.3 kmh 30.00 in1015.9 mb 0.00 in0.0 mm 0.00 in0.0 mm 0.09 in2.3 mm
11:00 PM 29.4°F-1.4°C 21.8°F-5.7°C 73% 2.0 mph WSW3.2 kmh WSW 8.0 mph12.9 kmh 30.01 in1016.3 mb 0.00 in0.0 mm 0.00 in0.0 mm 0.09 in2.3 mm
11:10 PM 29.2°F-1.6°C 21.6°F-5.8°C 73% 2.0 mph WSW3.2 kmh WSW 5.0 mph8.0 kmh 30.01 in1016.3 mb 0.00 in0.0 mm 0.00 in0.0 mm 0.09 in2.3 mm
11:20 PM 29.2°F-1.6°C 21.6°F-5.8°C 73% 2.0 mph WSW3.2 kmh WSW 10.0 mph16.1 kmh 30.00 in1015.9 mb 0.00 in0.0 mm 0.00 in0.0 mm 0.09 in2.3 mm
11:30 PM 29.6°F-1.3°C 21.7°F-5.7°C 72% 3.0 mph SW4.8 kmh SW 9.0 mph14.5 kmh 30.00 in1015.9 mb 0.00 in0.0 mm 0.00 in0.0 mm 0.09 in2.3 mm
11:40 PM 29.7°F-1.3°C 21.8°F-5.7°C 72% 3.0 mph SW4.8 kmh SW 7.0 mph11.3 kmh 29.99 in1015.6 mb 0.00 in0.0 mm 0.00 in0.0 mm 0.09 in2.3 mm
11:50 PM 30.2°F-1.0°C 21.6°F-5.8°C 70% 3.0 mph SW4.8 kmh SW 9.0 mph14.5 kmh 29.99 in1015.6 mb 0.00 in0.0 mm 0.00 in0.0 mm 0.09 in2.3 mm